Time;durP1;ratioP1;P1;durP2;ratioP2;P2;SDS_P1;SDS_P2;PMS_P1;PMS_P2;Temp;Humidity;BMP_temperature;BMP_pressure;BME280_temperature;BME280_humidity;BME280_pressure;Samples;Min_cycle;Max_cycle;Signal;HPM_P1;HPM_P2
2021/09/28 00:00:10;;;;;;;12.80;9.85;;;;;;;16.05;75.20;93716.63;5112755;28;20026;-50
2021/09/28 00:02:35;;;;;;;13.23;9.75;;;;;;;16.03;74.81;93699.78;5112449;28;20492;-50
2021/09/28 00:05:01;;;;;;;11.93;9.77;;;;;;;16.06;74.76;93700.66;5112683;28;20137;-48
2021/09/28 00:07:26;;;;;;;10.27;9.15;;;;;;;16.02;74.77;93694.78;5112255;28;20405;-50
2021/09/28 00:09:52;;;;;;;15.30;10.23;;;;;;;15.95;74.71;93699.16;5112580;28;20027;-50
2021/09/28 00:12:18;;;;;;;9.48;8.50;;;;;;;15.91;74.26;93701.63;5112394;28;20024;-50
2021/09/28 00:14:44;;;;;;;9.02;8.13;;;;;;;15.74;73.73;93693.31;5112477;28;20028;-52
2021/09/28 00:17:09;;;;;;;13.60;8.52;;;;;;;15.84;73.91;93680.94;5110798;28;20460;-49
2021/09/28 00:19:35;;;;;;;11.18;8.15;;;;;;;15.74;72.71;93679.41;5112338;28;20024;-51
2021/09/28 00:22:00;;;;;;;9.68;8.68;;;;;;;15.66;73.47;93684.31;5102148;27;20531;-51
2021/09/28 00:24:26;;;;;;;11.38;8.40;;;;;;;15.60;74.09;93697.75;5091514;28;20035;-52
2021/09/28 00:26:51;;;;;;;11.27;8.50;;;;;;;15.58;74.46;93689.25;5091919;28;20035;-50
2021/09/28 00:29:17;;;;;;;12.30;8.50;;;;;;;15.65;74.60;93688.44;5091788;28;20031;-48
2021/09/28 00:31:42;;;;;;;8.77;7.68;;;;;;;15.58;74.72;93669.75;5091293;28;20032;-51
2021/09/28 00:34:08;;;;;;;7.95;7.13;;;;;;;15.43;72.87;93647.66;5091765;28;20028;-50
2021/09/28 00:36:33;;;;;;;8.75;6.57;;;;;;;15.60;73.28;93676.22;5091389;28;20488;-50
2021/09/28 00:38:58;;;;;;;8.30;6.93;;;;;;;15.58;72.02;93690.00;5091675;28;20039;-49
2021/09/28 00:41:24;;;;;;;11.20;8.45;;;;;;;15.48;73.94;93691.25;5091403;28;20016;-51
2021/09/28 00:43:53;;;;;;;8.60;7.70;;;;;;;15.57;73.66;93696.13;5091607;28;20103;-50
2021/09/28 00:46:19;;;;;;;7.90;6.43;;;;;;;15.51;72.28;93690.06;5091589;28;20031;-50
2021/09/28 00:48:45;;;;;;;8.40;7.13;;;;;;;15.44;73.40;93693.72;5097808;28;20023;-50
2021/09/28 00:51:12;;;;;;;7.32;6.20;;;;;;;15.40;72.60;93685.72;5111429;28;20444;-51
2021/09/28 00:53:41;;;;;;;14.18;6.15;;;;;;;15.18;71.36;93683.97;5111495;28;20028;-49
2021/09/28 00:56:08;;;;;;;6.78;5.90;;;;;;;15.11;72.53;93691.09;5110531;28;20031;-49
2021/09/28 00:58:35;;;;;;;8.32;6.40;;;;;;;15.05;73.63;93678.72;5111343;28;20534;-52
2021/09/28 01:01:02;;;;;;;7.28;6.38;;;;;;;14.99;72.80;93684.53;5111370;28;20527;-49
2021/09/28 01:03:28;;;;;;;6.10;5.50;;;;;;;15.11;71.99;93696.66;5111294;28;20028;-49
2021/09/28 01:05:54;;;;;;;7.18;6.47;;;;;;;15.08;72.30;93686.66;5111480;28;20046;-52
2021/09/28 01:08:19;;;;;;;7.18;6.32;;;;;;;15.18;73.30;93683.97;5111225;28;20076;-50
2021/09/28 01:10:44;;;;;;;8.05;6.50;;;;;;;15.11;72.77;93674.41;5110672;28;20027;-50
2021/09/28 01:13:10;;;;;;;8.00;5.80;;;;;;;15.14;71.38;93678.78;5111119;28;20028;-52
2021/09/28 01:15:36;;;;;;;7.93;5.70;;;;;;;15.23;70.57;93673.88;5092297;28;20036;-49
2021/09/28 01:18:01;;;;;;;7.35;6.20;;;;;;;15.30;71.53;93670.28;5091000;28;20055;-50
2021/09/28 01:20:27;;;;;;;6.72;6.03;;;;;;;15.31;71.55;93674.53;5090871;28;20020;-50
2021/09/28 01:22:52;;;;;;;7.38;5.70;;;;;;;15.18;71.69;93664.50;5107706;28;20480;-49
2021/09/28 01:25:18;;;;;;;7.20;6.05;;;;;;;15.00;71.23;93654.69;5110930;28;20019;-48
2021/09/28 01:27:44;;;;;;;8.25;6.13;;;;;;;15.27;73.42;93666.59;5109663;28;20027;-49
2021/09/28 01:30:10;;;;;;;8.85;6.30;;;;;;;15.08;73.33;93633.81;5110955;28;20027;-49
2021/09/28 01:32:36;;;;;;;8.00;5.80;;;;;;;15.43;72.44;93670.69;5110752;28;20496;-49
2021/09/28 01:35:03;;;;;;;6.43;5.25;;;;;;;15.48;71.12;93658.59;5111104;28;20028;-49
2021/09/28 01:37:28;;;;;;;7.65;6.35;;;;;;;15.43;69.66;93667.91;5110755;28;20051;-51
2021/09/28 01:39:54;;;;;;;8.05;6.15;;;;;;;15.27;70.91;93632.50;5110731;28;20096;-50
2021/09/28 01:42:19;;;;;;;7.40;5.35;;;;;;;15.54;71.39;93663.88;5110758;28;20020;-49
2021/09/28 01:44:45;;;;;;;9.38;6.03;;;;;;;15.62;71.32;93656.91;5110652;28;20035;-49
2021/09/28 01:47:10;;;;;;;6.38;5.30;;;;;;;15.63;71.19;93660.44;5110707;28;20032;-50
2021/09/28 01:49:36;;;;;;;7.65;5.97;;;;;;;15.52;69.94;93670.03;5096708;28;20041;-49
2021/09/28 01:52:01;;;;;;;7.07;5.82;;;;;;;15.48;70.84;93666.94;5090071;28;20052;-50
2021/09/28 01:54:27;;;;;;;7.43;5.53;;;;;;;15.33;70.54;93669.13;5089315;28;20100;-51
2021/09/28 01:56:52;;;;;;;6.28;5.55;;;;;;;15.34;70.67;93673.38;5090532;28;20042;-51
2021/09/28 01:59:18;;;;;;;7.70;5.32;;;;;;;15.09;71.14;93667.94;5090504;28;20032;-49
2021/09/28 02:01:43;;;;;;;7.25;5.57;;;;;;;15.06;70.79;93667.03;5090185;28;20024;-48
2021/09/28 02:04:09;;;;;;;7.97;5.75;;;;;;;15.16;71.69;93673.41;5090208;28;20059;-49
2021/09/28 02:06:40;;;;;;;8.20;5.65;;;;;;;15.18;72.49;93665.22;5090131;28;20035;-49
2021/09/28 02:09:08;;;;;;;9.40;6.25;;;;;;;15.32;71.83;93673.22;5090388;28;20016;-49
2021/09/28 02:11:34;;;;;;;8.30;5.65;;;;;;;15.37;71.55;93677.81;5106222;28;20046;-50
2021/09/28 02:14:00;;;;;;;7.65;5.78;;;;;;;15.28;71.37;93645.06;5110702;28;20024;-49
2021/09/28 02:16:26;;;;;;;7.57;6.53;;;;;;;15.43;71.13;93673.47;5110453;28;20129;-53
2021/09/28 02:18:51;;;;;;;8.25;5.50;;;;;;;15.43;70.95;93653.25;5110649;28;20027;-49
2021/09/28 02:21:17;;;;;;;13.25;5.68;;;;;;;15.47;70.28;93657.09;5106459;28;20476;-52
2021/09/28 02:23:42;;;;;;;8.93;6.10;;;;;;;15.20;70.30;93622.94;5092697;28;20051;-49
2021/09/28 02:26:08;;;;;;;8.65;6.20;;;;;;;15.39;69.28;93650.13;5094213;28;20024;-50
2021/09/28 02:28:33;;;;;;;7.32;5.82;;;;;;;15.46;70.90;93666.78;5093950;28;20389;-49
2021/09/28 02:30:59;;;;;;;9.75;6.38;;;;;;;15.34;71.46;93660.22;5094046;28;20016;-50
2021/09/28 02:33:24;;;;;;;7.50;5.30;;;;;;;15.29;69.80;93652.13;5094086;28;20562;-49
2021/09/28 02:35:50;;;;;;;5.97;5.03;;;;;;;15.36;68.04;93674.28;5094096;28;20057;-51
2021/09/28 02:38:15;;;;;;;11.05;5.75;;;;;;;15.43;69.37;93675.50;5093655;28;20020;-49
2021/09/28 02:40:41;;;;;;;7.95;6.38;;;;;;;15.51;70.35;93673.38;5093700;28;20016;-48
2021/09/28 02:43:07;;;;;;;9.10;5.95;;;;;;;15.46;70.76;93680.69;5093880;28;20024;-49
2021/09/28 02:45:32;;;;;;;7.88;5.78;;;;;;;15.46;70.19;93680.69;5093541;28;20055;-50
2021/09/28 02:47:57;;;;;;;7.10;6.05;;;;;;;15.46;70.46;93666.78;5092191;28;20127;-51
2021/09/28 02:50:23;;;;;;;7.03;5.88;;;;;;;15.37;70.84;93669.47;5113793;28;20047;-50
2021/09/28 02:52:48;;;;;;;6.57;5.95;;;;;;;15.30;70.47;93654.31;5113848;28;20020;-49
2021/09/28 02:55:14;;;;;;;8.45;6.30;;;;;;;15.16;70.02;93651.16;5113747;28;20055;-51
2021/09/28 02:57:39;;;;;;;7.20;5.55;;;;;;;15.42;70.67;93693.50;5114025;28;20019;-50
2021/09/28 03:00:06;;;;;;;7.72;6.13;;;;;;;15.44;70.76;93693.72;5114018;28;20023;-51
2021/09/28 03:02:32;;;;;;;5.90;5.30;;;;;;;15.16;70.48;93681.75;5113629;28;20098;-49
2021/09/28 03:04:57;;;;;;;7.28;6.00;;;;;;;15.22;70.67;93694.66;5113668;27;20111;-50
2021/09/28 03:07:23;;;;;;;7.65;6.20;;;;;;;15.19;70.52;93699.31;5113371;27;20031;-49
2021/09/28 03:09:49;;;;;;;7.07;5.47;;;;;;;15.22;70.13;93691.88;5113846;28;20440;-51
2021/09/28 03:12:14;;;;;;;8.50;5.53;;;;;;;15.26;71.02;93692.94;5095266;27;20031;-49
2021/09/28 03:14:40;;;;;;;7.40;5.40;;;;;;;15.15;71.26;93699.75;5093370;28;20027;-50
2021/09/28 03:17:05;;;;;;;6.00;5.38;;;;;;;15.05;71.29;93696.13;5093306;28;20722;-49
2021/09/28 03:19:32;;;;;;;5.97;5.35;;;;;;;15.12;71.43;93695.31;5093227;28;20016;-52
2021/09/28 03:21:57;;;;;;;8.15;5.25;;;;;;;15.14;70.82;93701.03;5092806;28;20031;-52
2021/09/28 03:24:23;;;;;;;7.18;6.10;;;;;;;15.13;71.38;93701.63;5092870;28;20020;-49
2021/09/28 03:26:48;;;;;;;7.05;5.75;;;;;;;15.09;70.87;93701.31;5092721;28;20024;-49
2021/09/28 03:29:14;;;;;;;6.93;5.18;;;;;;;15.13;71.54;93696.06;5093032;28;20077;-49
2021/09/28 03:31:39;;;;;;;7.80;5.13;;;;;;;15.06;69.67;93696.88;5092899;28;20504;-49
2021/09/28 03:34:05;;;;;;;6.32;5.72;;;;;;;15.08;71.24;93699.81;5092608;28;20056;-52
2021/09/28 03:36:30;;;;;;;6.40;5.72;;;;;;;15.08;71.16;93695.00;5092568;28;20024;-50
2021/09/28 03:38:56;;;;;;;6.65;5.60;;;;;;;15.15;71.71;93707.34;5092733;28;20028;-49
2021/09/28 03:41:22;;;;;;;8.13;6.05;;;;;;;15.15;71.65;93704.56;5092855;28;20121;-49
2021/09/28 03:43:47;;;;;;;9.57;6.38;;;;;;;15.13;71.61;93707.94;5092683;28;20028;-48
2021/09/28 03:46:13;;;;;;;7.38;6.07;;;;;;;15.02;72.36;93713.97;5092750;28;20031;-50
2021/09/28 03:48:39;;;;;;;8.05;6.28;;;;;;;15.10;71.33;93708.31;5098286;28;20400;-49
2021/09/28 03:51:04;;;;;;;6.10;5.53;;;;;;;15.07;70.84;93703.91;5112414;28;20138;-53
2021/09/28 03:53:30;;;;;;;6.47;5.72;;;;;;;15.11;71.49;93716.09;5112920;28;20536;-50
2021/09/28 03:55:56;;;;;;;5.50;4.97;;;;;;;15.24;71.06;93714.31;5112788;28;20492;-52
2021/09/28 03:58:21;;;;;;;9.15;6.47;;;;;;;15.04;72.11;93716.91;5112889;28;20049;-49
2021/09/28 04:00:47;;;;;;;7.75;5.78;;;;;;;15.05;71.18;93721.16;5112561;28;20508;-51
2021/09/28 04:03:12;;;;;;;11.70;6.15;;;;;;;15.12;71.74;93714.78;5112517;28;20023;-50
2021/09/28 04:05:38;;;;;;;6.93;6.13;;;;;;;15.11;71.76;93720.94;5112680;28;20028;-49
2021/09/28 04:08:05;;;;;;;5.97;5.45;;;;;;;14.97;72.48;93720.50;5112285;28;20031;-52
2021/09/28 04:10:30;;;;;;;7.10;5.93;;;;;;;14.78;73.35;93716.81;5112312;28;20052;-49
2021/09/28 04:12:56;;;;;;;10.20;6.32;;;;;;;14.93;73.67;93728.53;5112495;28;20100;-49
2021/09/28 04:15:25;;;;;;;7.10;6.40;;;;;;;15.04;72.81;93738.41;5112484;28;20500;-49
2021/09/28 04:17:51;;;;;;;8.15;6.15;;;;;;;15.04;72.58;93730.09;5112474;28;20024;-48
2021/09/28 04:20:17;;;;;;;7.07;6.22;;;;;;;15.14;72.60;93730.91;5112101;28;20034;-53
2021/09/28 04:22:43;;;;;;;7.78;7.03;;;;;;;15.15;73.19;93730.34;5096288;28;20020;-49
2021/09/28 04:25:09;;;;;;;11.50;6.35;;;;;;;15.15;73.49;93726.81;5090441;28;20024;-49
2021/09/28 04:27:35;;;;;;;8.85;6.05;;;;;;;15.13;73.24;93730.19;5091848;28;20020;-49
2021/09/28 04:30:00;;;;;;;7.55;6.53;;;;;;;15.07;73.72;93734.50;5091598;28;20027;-49
2021/09/28 04:32:26;;;;;;;7.65;6.18;;;;;;;15.02;72.86;93719.53;5091382;28;20016;-50
2021/09/28 04:34:51;;;;;;;8.13;5.45;;;;;;;15.13;72.52;93735.75;5091571;28;20028;-49
2021/09/28 04:37:17;;;;;;;10.80;6.45;;;;;;;15.12;72.91;93734.25;5091651;28;20020;-50
2021/09/28 04:39:42;;;;;;;6.30;5.70;;;;;;;15.12;72.64;93736.28;5091339;28;20054;-49
2021/09/28 04:42:08;;;;;;;6.55;5.95;;;;;;;15.10;71.24;93720.19;5091360;28;20027;-49
2021/09/28 04:44:33;;;;;;;9.85;6.28;;;;;;;15.24;71.37;93725.44;5091578;28;20031;-49
2021/09/28 04:46:59;;;;;;;9.80;7.47;;;;;;;15.27;71.50;93724.28;5090545;28;20424;-49
2021/09/28 04:49:24;;;;;;;7.50;6.20;;;;;;;15.24;71.65;93720.59;5103617;28;20488;-51
2021/09/28 04:51:49;;;;;;;11.07;6.43;;;;;;;15.28;70.56;93720.19;5111070;28;20047;-50
2021/09/28 04:54:15;;;;;;;7.03;6.18;;;;;;;15.27;71.00;93719.44;5111726;28;20011;-51
2021/09/28 04:56:40;;;;;;;7.75;6.70;;;;;;;15.06;71.33;93688.53;5111730;27;20416;-49
2021/09/28 04:59:06;;;;;;;11.77;5.78;;;;;;;15.05;70.71;93687.78;5111441;28;20492;-49
2021/09/28 05:01:32;;;;;;;8.50;6.47;;;;;;;15.34;70.17;93717.88;5111356;28;20489;-49
2021/09/28 05:03:57;;;;;;;6.95;5.90;;;;;;;15.29;70.64;93713.31;5111501;28;20162;-52
2021/09/28 05:06:23;;;;;;;7.68;6.40;;;;;;;15.33;70.54;93710.88;5111555;28;20051;-52
2021/09/28 05:08:48;;;;;;;9.27;6.25;;;;;;;15.35;67.16;93703.41;5111411;28;20415;-50
2021/09/28 05:11:14;;;;;;;9.70;6.45;;;;;;;15.22;70.03;93687.06;5111406;28;20034;-50
2021/09/28 05:13:40;;;;;;;10.98;6.25;;;;;;;15.37;69.98;93700.06;5111096;28;20404;-49
2021/09/28 05:16:06;;;;;;;7.15;6.45;;;;;;;15.27;69.86;93702.03;5111323;28;20103;-49
2021/09/28 05:18:31;;;;;;;8.35;6.60;;;;;;;15.06;70.49;93692.06;5111109;28;20049;-50
2021/09/28 05:20:56;;;;;;;6.63;5.90;;;;;;;14.77;72.01;93707.72;5109640;28;20019;-49
2021/09/28 05:23:22;;;;;;;6.93;6.22;;;;;;;14.36;74.74;93714.00;5090719;28;20077;-49
2021/09/28 05:25:47;;;;;;;7.45;6.63;;;;;;;14.32;75.59;93702.53;5090474;28;20073;-50
2021/09/28 05:28:13;;;;;;;8.32;7.18;;;;;;;14.07;76.77;93693.47;5090586;28;20077;-48
2021/09/28 05:30:38;;;;;;;8.25;7.25;;;;;;;13.91;78.22;93717.06;5090454;28;20020;-49
2021/09/28 05:33:05;;;;;;;8.23;6.55;;;;;;;13.87;78.33;93725.03;5090772;28;20023;-49
2021/09/28 05:35:31;;;;;;;8.50;7.57;;;;;;;13.82;79.07;93723.94;5090493;28;20558;-50
2021/09/28 05:37:56;;;;;;;10.18;7.20;;;;;;;13.67;78.99;93733.09;5090332;28;20028;-51
2021/09/28 05:40:22;;;;;;;9.00;7.55;;;;;;;13.63;79.96;93732.75;5090254;28;20069;-52
2021/09/28 05:42:47;;;;;;;10.20;9.05;;;;;;;13.83;80.75;93733.00;5090617;28;20027;-48
2021/09/28 05:45:13;;;;;;;13.85;7.97;;;;;;;13.87;78.92;93725.03;5090359;28;20028;-49
2021/09/28 05:47:38;;;;;;;11.77;7.85;;;;;;;13.93;77.80;93731.09;5090619;28;20023;-48
2021/09/28 05:50:05;;;;;;;11.90;7.63;;;;;;;13.87;79.04;93719.47;5108097;28;20026;-48
2021/09/28 05:52:31;;;;;;;11.27;7.38;;;;;;;13.70;79.94;93725.69;5110585;28;20065;-48
2021/09/28 05:54:56;;;;;;;12.40;8.43;;;;;;;13.81;79.84;93716.94;5110697;28;20023;-49
2021/09/28 05:57:23;;;;;;;17.45;8.48;;;;;;;14.00;80.26;93719.97;5111392;28;20019;-48
2021/09/28 05:59:49;;;;;;;23.63;21.48;;;;;;;14.08;79.73;93709.53;5115078;28;20026;-49
2021/09/28 06:02:15;;;;;;;9.82;8.82;;;;;;;14.33;79.85;93718.66;5115044;28;20020;-50
2021/09/28 06:04:41;;;;;;;46.40;43.22;;;;;;;14.11;78.49;93675.09;5114710;28;20110;-49
2021/09/28 06:07:07;;;;;;;14.15;10.93;;;;;;;14.47;78.48;93715.59;5114669;28;20102;-49
2021/09/28 06:09:37;;;;;;;10.95;8.38;;;;;;;14.59;78.17;93711.78;5114928;28;20031;-49
2021/09/28 06:12:07;;;;;;;60.17;56.42;;;;;;;14.35;78.72;93724.38;5114911;28;20027;-49
2021/09/28 06:14:32;;;;;;;11.88;9.35;;;;;;;14.50;77.38;93722.78;5114893;28;20559;-50
2021/09/28 06:16:59;;;;;;;10.70;8.75;;;;;;;14.54;76.90;93723.84;5114756;28;20093;-49
2021/09/28 06:19:25;;;;;;;10.68;9.57;;;;;;;14.52;76.88;93717.41;5114502;27;20087;-50
2021/09/28 06:21:50;;;;;;;15.98;9.88;;;;;;;14.33;77.19;93735.34;5105826;28;20027;-48
2021/09/28 06:24:16;;;;;;;11.82;7.88;;;;;;;14.24;78.20;93722.03;5094011;28;20024;-50
2021/09/28 06:26:43;;;;;;;11.02;8.50;;;;;;;14.25;78.03;93740.16;5093926;28;20478;-50
2021/09/28 06:29:09;;;;;;;34.95;8.85;;;;;;;14.09;77.41;93724.91;5093874;28;20032;-49
2021/09/28 06:31:34;;;;;;;12.77;9.57;;;;;;;14.25;78.83;93731.81;5093891;28;20119;-50
2021/09/28 06:34:00;;;;;;;9.98;7.90;;;;;;;14.20;78.19;93737.63;5094049;28;20447;-49
2021/09/28 06:53:58;;;;;;;9.90;8.35;;;;;;;14.37;76.50;93746.03;5149373;27;20127;-49
2021/09/28 06:56:24;;;;;;;8.68;7.53;;;;;;;14.49;76.50;93760.94;5128709;28;20026;-51
2021/09/28 06:58:51;;;;;;;33.13;11.32;;;;;;;14.38;76.19;93769.72;5126947;28;20022;-50
2021/09/28 07:01:16;;;;;;;9.75;7.60;;;;;;;14.27;77.04;93750.72;5108035;28;20020;-51
2021/09/28 07:03:42;;;;;;;10.32;7.60;;;;;;;14.53;76.34;93764.06;5108260;28;20019;-49
2021/09/28 07:06:07;;;;;;;8.65;7.75;;;;;;;14.54;76.30;93768.31;5107985;28;20456;-49
2021/09/28 07:08:33;;;;;;;8.07;7.28;;;;;;;14.47;75.94;93754.50;5108293;28;20023;-50
2021/09/28 07:10:58;;;;;;;9.80;7.82;;;;;;;14.77;75.61;93779.28;5108144;28;20050;-49
2021/09/28 07:13:24;;;;;;;9.93;8.60;;;;;;;14.88;74.32;93768.41;5108111;28;20437;-49
2021/09/28 07:15:49;;;;;;;223.57;21.30;;;;;;;14.91;74.37;93769.31;5107400;28;20037;-51
2021/09/28 07:18:15;;;;;;;8.70;7.00;;;;;;;15.06;74.39;93767.13;5108010;28;20015;-50
2021/09/28 07:20:41;;;;;;;9.48;7.20;;;;;;;15.32;75.00;93770.59;5089827;28;20107;-52
2021/09/28 07:23:06;;;;;;;9.70;7.68;;;;;;;15.50;73.83;93774.88;5107637;28;20020;-50
2021/09/28 07:25:32;;;;;;;10.93;9.10;;;;;;;15.72;73.08;93757.19;5107994;28;20020;-51
2021/09/28 07:27:58;;;;;;;6.28;5.68;;;;;;;15.88;70.91;93775.16;5107579;28;20059;-50
2021/09/28 07:30:25;;;;;;;11.30;7.20;;;;;;;15.98;71.88;93775.25;5107544;28;20024;-52
2021/09/28 07:32:51;;;;;;;9.40;7.25;;;;;;;16.31;71.47;93777.19;5113717;28;20024;-50
2021/09/28 07:35:17;;;;;;;7.72;6.50;;;;;;;16.55;69.15;93778.34;5127914;28;20405;-50
2021/09/28 07:37:42;;;;;;;6.28;5.68;;;;;;;16.56;67.37;93774.28;5126949;28;20016;-51
2021/09/28 07:40:08;;;;;;;7.78;6.97;;;;;;;16.56;67.17;93763.88;5127257;28;20035;-50
2021/09/28 07:42:34;;;;;;;8.65;7.65;;;;;;;16.81;69.52;93772.00;5127759;28;20019;-51
2021/09/28 07:45:03;;;;;;;8.50;6.95;;;;;;;16.83;66.71;93772.16;5128085;28;20031;-53
2021/09/28 07:47:28;;;;;;;7.65;6.85;;;;;;;17.08;66.78;93771.94;5127686;28;20494;-51
2021/09/28 07:49:54;;;;;;;10.70;7.28;;;;;;;17.22;65.54;93784.16;5127180;28;20034;-50
2021/09/28 07:52:19;;;;;;;8.52;7.45;;;;;;;17.40;65.32;93777.88;5107059;28;20040;-52
2021/09/28 07:54:45;;;;;;;11.43;8.00;;;;;;;17.70;65.31;93789.81;5107315;28;20028;-51
2021/09/28 07:57:10;;;;;;;11.02;8.00;;;;;;;17.91;65.15;93779.53;5107380;28;20398;-50
2021/09/28 07:59:36;;;;;;;12.10;8.35;;;;;;;18.21;64.18;93783.78;5106949;28;20024;-50
2021/09/28 08:02:02;;;;;;;14.63;8.70;;;;;;;18.22;62.75;93782.44;5106975;28;20034;-50
2021/09/28 08:04:27;;;;;;;10.40;9.30;;;;;;;18.07;63.43;93789.09;5098247;28;20027;-50
2021/09/28 08:06:55;;;;;;;11.45;8.23;;;;;;;18.35;62.32;93770.03;5093517;28;20452;-50
2021/09/28 08:09:20;;;;;;;8.77;7.88;;;;;;;18.54;61.64;93781.19;5093488;28;20104;-50
2021/09/28 08:11:46;;;;;;;8.05;7.15;;;;;;;18.26;61.34;93765.94;5093335;28;20489;-50
2021/09/28 08:14:12;;;;;;;8.70;7.32;;;;;;;18.10;62.39;93771.13;5093183;28;20513;-50
2021/09/28 08:16:37;;;;;;;9.95;8.80;;;;;;;18.87;61.24;93773.72;5093332;28;20028;-51
2021/09/28 08:19:03;;;;;;;8.23;6.93;;;;;;;20.09;56.91;93772.78;5093017;28;20044;-50
2021/09/28 08:21:29;;;;;;;8.00;7.20;;;;;;;20.84;54.76;93769.78;5093052;28;20103;-51
2021/09/28 08:23:55;;;;;;;8.90;6.63;;;;;;;21.04;53.63;93751.41;5093181;28;20150;-50
2021/09/28 08:29:15;;;;;;;6.53;5.57;;;;;;;22.25;48.97;93775.31;5092782;28;20028;-49
2021/09/28 08:31:47;;;;;;;8.68;6.53;;;;;;;22.67;49.78;93768.53;5092737;28;20506;-50
2021/09/28 08:34:13;;;;;;;6.90;6.25;;;;;;;23.31;47.86;93765.59;5092777;28;20077;-52
2021/09/28 08:36:39;;;;;;;12.45;6.65;;;;;;;23.93;46.82;93763.13;5092684;28;20024;-51
2021/09/28 08:39:06;;;;;;;7.13;6.47;;;;;;;23.95;45.42;93762.53;5092626;28;20118;-52
2021/09/28 08:41:32;;;;;;;8.27;6.32;;;;;;;24.65;44.79;93768.78;5092691;28;20024;-54
2021/09/28 08:43:57;;;;;;;8.95;7.43;;;;;;;24.92;43.42;93770.75;5092130;28;20043;-50
2021/09/28 08:46:25;;;;;;;8.88;7.22;;;;;;;24.10;43.85;93756.25;5094686;28;20530;-50
2021/09/28 08:48:51;;;;;;;10.65;7.28;;;;;;;23.75;45.04;93756.63;5112381;28;20118;-54
2021/09/28 08:51:16;;;;;;;7.45;6.75;;;;;;;23.25;46.05;93760.38;5100538;28;20016;-50
2021/09/28 08:53:42;;;;;;;8.55;7.50;;;;;;;22.77;46.89;93765.50;5092169;28;20072;-51
2021/09/28 08:56:11;;;;;;;9.93;7.22;;;;;;;22.10;48.14;93775.16;5092661;28;20443;-51
2021/09/28 08:59:27;;;;;;;10.40;8.63;;;;;;;21.63;49.86;93771.72;5092513;28;20034;-50
2021/09/28 09:01:53;;;;;;;8.88;7.88;;;;;;;21.34;52.21;93768.59;5092207;28;20078;-50
2021/09/28 09:04:20;;;;;;;9.75;7.80;;;;;;;21.20;51.35;93779.72;5092466;28;20047;-50
2021/09/28 09:06:46;;;;;;;9.02;7.97;;;;;;;21.17;52.40;93771.78;5092095;28;20085;-52
2021/09/28 09:09:13;;;;;;;9.13;8.23;;;;;;;21.66;52.64;93768.41;5092443;28;20025;-51
2021/09/28 09:11:41;;;;;;;8.40;7.57;;;;;;;22.54;49.05;93775.53;5092171;28;20035;-51
2021/09/28 09:14:17;;;;;;;8.23;7.00;;;;;;;23.00;48.12;93780.16;5091969;28;20024;-53
2021/09/28 09:16:44;;;;;;;7.88;7.18;;;;;;;23.18;47.97;93772.69;5091256;28;20107;-52
2021/09/28 09:19:18;;;;;;;6.85;6.22;;;;;;;22.69;46.51;93767.91;5091630;28;20034;-50
2021/09/28 09:21:52;;;;;;;9.82;8.63;;;;;;;22.26;48.40;93745.84;5091766;28;20449;-53
2021/09/28 09:24:42;;;;;;;7.68;6.00;;;;;;;22.16;48.69;93759.34;5091798;28;20483;-51
2021/09/28 09:27:16;;;;;;;6.45;5.72;;;;;;;23.01;46.81;93761.19;5091782;28;20028;-50
2021/09/28 09:29:42;;;;;;;6.47;5.88;;;;;;;23.40;45.14;93759.03;5091750;28;20024;-52
2021/09/28 09:32:10;;;;;;;7.95;5.40;;;;;;;23.49;45.50;93771.47;5073504;28;20080;-50
2021/09/28 09:34:36;;;;;;;5.72;4.65;;;;;;;24.17;43.79;93760.09;5091628;28;20020;-52
2021/09/28 09:37:07;;;;;;;8.90;5.25;;;;;;;23.95;43.47;93725.88;5091837;28;20026;-50
2021/09/28 09:39:50;;;;;;;5.32;4.82;;;;;;;23.73;44.10;93759.34;5091575;28;20106;-54
2021/09/28 09:42:16;;;;;;;6.15;5.07;;;;;;;23.01;45.89;93747.84;5091699;28;20403;-54
2021/09/28 09:44:42;;;;;;;8.30;6.00;;;;;;;23.38;46.34;93761.03;5110968;28;20032;-51
2021/09/28 09:47:25;;;;;;;8.70;5.85;;;;;;;23.92;45.79;93772.25;5111981;28;20533;-52
2021/09/28 09:49:51;;;;;;;6.60;4.78;;;;;;;23.99;44.32;93763.47;5111954;28;20456;-51
2021/09/28 09:52:16;;;;;;;8.35;5.13;;;;;;;22.82;45.93;93731.34;5063160;28;20124;-52
2021/09/28 09:54:43;;;;;;;5.97;5.38;;;;;;;22.17;48.79;93766.44;5050397;28;20485;-51
2021/09/28 09:57:10;;;;;;;7.97;4.57;;;;;;;21.80;48.75;93757.25;5050842;28;20029;-51
2021/09/28 09:59:37;;;;;;;6.13;5.53;;;;;;;21.70;49.15;93765.13;5051013;28;20502;-50
2021/09/28 10:02:03;;;;;;;7.57;5.05;;;;;;;22.04;48.73;93760.75;5050939;28;20053;-50
2021/09/28 10:04:29;;;;;;;7.32;5.20;;;;;;;21.43;49.23;93745.25;5051129;28;20051;-50
2021/09/28 10:06:55;;;;;;;6.22;5.20;;;;;;;20.76;50.58;93757.34;5051096;28;20480;-52
2021/09/28 10:09:30;;;;;;;5.75;5.15;;;;;;;20.64;51.37;93765.03;5050676;28;20509;-50
2021/09/28 10:12:02;;;;;;;6.40;4.97;;;;;;;20.05;52.15;93727.69;5049513;28;20025;-52
2021/09/28 10:14:39;;;;;;;5.88;5.07;;;;;;;20.32;52.81;93763.72;5051006;28;20040;-53
2021/09/28 10:17:20;;;;;;;6.03;5.10;;;;;;;19.85;52.22;93764.88;5050891;28;20076;-53
2021/09/28 10:19:59;;;;;;;6.55;5.38;;;;;;;19.81;53.07;93723.34;5050867;28;20416;-53
2021/09/28 10:22:33;;;;;;;;;;;;;;;20.21;53.74;93759.56;5051183;28;20499;-50
2021/09/28 10:25:23;;;;;;;5.22;4.75;;;;;;;19.85;53.34;93760.00;5050744;28;19909;-50
2021/09/28 10:27:57;;;;;;;6.43;4.80;;;;;;;19.74;53.82;93754.34;5050310;28;20491;-51
2021/09/28 10:30:28;;;;;;;8.43;5.93;;;;;;;19.82;53.69;93766.06;5050484;28;20032;-53
2021/09/28 10:32:55;;;;;;;6.70;4.82;;;;;;;20.01;52.95;93761.03;5050635;28;20117;-52
2021/09/28 10:35:20;;;;;;;5.38;4.88;;;;;;;19.94;53.00;93758.47;5049534;28;20099;-50
2021/09/28 10:37:52;;;;;;;6.25;5.60;;;;;;;19.93;54.76;93715.69;5050641;28;20080;-52
2021/09/28 10:40:20;;;;;;;6.38;5.78;;;;;;;20.62;54.10;93759.28;5064181;28;20035;-50
2021/09/28 10:43:01;;;;;;;4.97;4.55;;;;;;;20.78;51.75;93755.41;5070389;28;20021;-54
2021/09/28 10:45:29;;;;;;;8.75;5.45;;;;;;;20.82;52.14;93744.41;5070612;28;20024;-55
2021/09/28 10:48:20;;;;;;;5.93;4.90;;;;;;;20.44;52.63;93750.47;5070312;28;20031;-51
2021/09/28 10:50:46;;;;;;;7.18;5.45;;;;;;;20.82;51.43;93752.84;5062426;28;20032;-51
2021/09/28 10:53:20;;;;;;;8.88;5.80;;;;;;;20.85;52.60;93746.03;5078240;28;20080;-52
2021/09/28 10:56:00;;;;;;;13.15;5.00;;;;;;;21.06;51.02;93745.19;5090285;28;20058;-51
2021/09/28 10:58:27;;;;;;;6.72;5.50;;;;;;;20.99;52.47;93748.94;5090179;28;20028;-52
2021/09/28 11:00:55;;;;;;;9.95;5.88;;;;;;;21.32;51.32;93741.13;5090592;28;20027;-54
2021/09/28 11:03:43;;;;;;;5.07;4.67;;;;;;;21.66;48.69;93739.56;5090341;28;20486;-51
2021/09/28 11:06:10;;;;;;;6.75;5.25;;;;;;;21.44;50.31;93730.59;5090533;28;20425;-51
2021/09/28 11:08:36;;;;;;;5.68;5.15;;;;;;;21.73;49.84;93733.69;5090561;28;20422;-51
2021/09/28 11:11:04;;;;;;;6.50;5.30;;;;;;;21.80;49.36;93737.59;5090190;28;20035;-53
2021/09/28 11:13:32;;;;;;;6.33;5.13;;;;;;;21.51;49.13;93704.31;5089086;28;20021;-54
2021/09/28 11:15:59;;;;;;;5.72;5.07;;;;;;;21.72;49.33;93735.03;5090107;28;20418;-52
2021/09/28 11:18:24;;;;;;;6.45;5.15;;;;;;;21.63;48.87;93730.31;5090434;28;20024;-54
2021/09/28 11:20:50;;;;;;;7.20;6.32;;;;;;;21.45;50.51;93736.94;5090389;28;20494;-53
2021/09/28 11:23:15;;;;;;;7.72;5.80;;;;;;;21.32;50.82;93734.75;5090476;28;20066;-54
2021/09/28 11:25:47;;;;;;;9.88;6.63;;;;;;;21.21;51.40;93739.06;5090128;28;20075;-53
2021/09/28 11:28:16;;;;;;;5.68;5.10;;;;;;;21.04;51.42;93743.00;5090148;28;20103;-50
2021/09/28 11:30:50;;;;;;;7.97;6.10;;;;;;;20.85;52.46;93748.09;5090282;28;20031;-52
2021/09/28 11:33:16;;;;;;;8.30;6.13;;;;;;;20.72;52.94;93740.28;5090319;28;20537;-50
2021/09/28 11:35:58;;;;;;;7.05;6.35;;;;;;;20.52;52.97;93728.53;5097010;28;20027;-52
2021/09/28 11:38:28;;;;;;;8.55;6.40;;;;;;;20.45;53.41;93739.97;5110711;28;20028;-53
2021/09/28 11:40:59;;;;;;;9.15;6.35;;;;;;;20.34;53.74;93744.22;5114285;28;20026;-49
2021/09/28 11:43:27;;;;;;;6.22;5.63;;;;;;;20.20;53.70;93746.13;5114530;28;20016;-49
2021/09/28 11:45:56;;;;;;;10.82;7.22;;;;;;;20.09;54.24;93750.38;5096597;28;20034;-51
2021/09/28 11:48:21;;;;;;;7.82;6.78;;;;;;;20.01;55.38;93732.28;5114030;28;20478;-51
2021/09/28 11:50:47;;;;;;;10.80;7.45;;;;;;;20.07;54.85;93752.31;5087710;28;20058;-50